Time;durP1;ratioP1;P1;durP2;ratioP2;P2;SDS_P1;SDS_P2;PMS_P1;PMS_P2;Temp;Humidity;BMP_temperature;BMP_pressure;BME280_temperature;BME280_humidity;BME280_pressure;Samples;Min_cycle;Max_cycle;Signal;HPM_P1;HPM_P2
2023/04/05 00:02:20;;;;;;;6.65;2.85;;;;;;;;;;5094079;28;20054;-72
2023/04/05 00:04:56;;;;;;;6.30;2.33;;;;;;;;;;5092463;28;20416;-72
2023/04/05 00:07:23;;;;;;;6.20;2.72;;;;;;;;;;5093687;28;20105;-70
2023/04/05 00:09:49;;;;;;;9.43;2.75;;;;;;;;;;5108862;28;20443;-64
2023/04/05 00:12:15;;;;;;;4.90;2.58;;;;;;;;;;5114148;27;20019;-75
2023/04/05 00:14:40;;;;;;;7.13;3.22;;;;;;;;;;5113766;28;20051;-71
2023/04/05 00:17:06;;;;;;;11.73;2.63;;;;;;;;;;5113879;28;20040;-74
2023/04/05 00:19:32;;;;;;;8.65;3.03;;;;;;;;;;5113847;28;20084;-74
2023/04/05 00:21:59;;;;;;;6.20;2.63;;;;;;;;;;5107843;27;20031;-70
2023/04/05 00:24:24;;;;;;;6.65;2.83;;;;;;;;;;5106469;28;20398;-72
2023/04/05 00:26:50;;;;;;;6.40;2.40;;;;;;;;;;5111959;28;20023;-72
2023/04/05 00:29:15;;;;;;;5.38;2.55;;;;;;;;;;5112109;28;20027;-70
2023/04/05 00:31:40;;;;;;;4.35;2.60;;;;;;;;;;5111978;28;20023;-73
2023/04/05 00:34:08;;;;;;;7.22;2.60;;;;;;;;;;5112304;28;20027;-75
2023/04/05 00:36:34;;;;;;;4.22;2.30;;;;;;;;;;5111991;28;20148;-73
2023/04/05 00:38:59;;;;;;;6.55;2.60;;;;;;;;;;5111491;28;20118;-75
2023/04/05 00:41:25;;;;;;;5.20;2.33;;;;;;;;;;5112308;28;20439;-72
2023/04/05 00:43:50;;;;;;;8.23;2.75;;;;;;;;;;5111891;28;20438;-66
2023/04/05 00:46:16;;;;;;;6.22;2.97;;;;;;;;;;5112052;28;20050;-63
2023/04/05 00:48:41;;;;;;;8.23;3.05;;;;;;;;;;5111827;28;20019;-64
2023/04/05 00:51:10;;;;;;;5.60;2.95;;;;;;;;;;5110778;28;20051;-75
2023/04/05 00:53:36;;;;;;;8.45;3.42;;;;;;;;;;5111920;28;20474;-63
2023/04/05 00:56:02;;;;;;;13.45;4.68;;;;;;;;;;5112079;28;20066;-73
2023/04/05 00:58:28;;;;;;;10.25;4.78;;;;;;;;;;5111285;27;20032;-73
2023/04/05 01:01:04;;;;;;;10.57;4.80;;;;;;;;;;5111945;28;20030;-67
2023/04/05 01:03:33;;;;;;;8.52;3.80;;;;;;;;;;5109637;28;20047;-63
2023/04/05 01:06:12;;;;;;;13.07;5.15;;;;;;;;;;5111691;28;20038;-68
2023/04/05 01:08:47;;;;;;;8.98;4.13;;;;;;;;;;5110731;28;20023;-65
2023/04/05 01:11:15;;;;;;;9.77;3.10;;;;;;;;;;5109789;28;20102;-72
2023/04/05 01:13:40;;;;;;;6.13;3.10;;;;;;;;;;5111673;28;20106;-65
2023/04/05 01:16:06;;;;;;;5.93;2.42;;;;;;;;;;5111688;28;20030;-64
2023/04/05 01:18:31;;;;;;;6.28;2.60;;;;;;;;;;5111339;28;20028;-66
2023/04/05 01:21:23;;;;;;;9.05;2.63;;;;;;;;;;5111362;28;20485;-68
2023/04/05 01:24:19;;;;;;;5.82;2.40;;;;;;;;;;5078909;28;20103;-68
2023/04/05 01:27:05;;;;;;;5.82;2.42;;;;;;;;;;5079193;28;20024;-72
2023/04/05 01:29:57;;;;;;;7.00;3.00;;;;;;;;;;5069359;28;20128;-68
2023/04/05 01:32:34;;;;;;;7.65;3.50;;;;;;;;;;4989164;28;20178;-66
2023/04/05 01:34:59;;;;;;;7.35;2.95;;;;;;;;;;4989278;28;20034;-63
2023/04/05 01:37:28;;;;;;;6.20;2.97;;;;;;;;;;4989379;28;20387;-72
2023/04/05 01:39:54;;;;;;;9.48;3.60;;;;;;;;;;4989355;28;20381;-70
2023/04/05 01:42:24;;;;;;;8.50;3.58;;;;;;;;;;4988949;28;20525;-70
2023/04/05 01:44:51;;;;;;;9.53;3.40;;;;;;;;;;4989345;28;20525;-70
2023/04/05 01:47:17;;;;;;;7.72;3.65;;;;;;;;;;4989101;28;20513;-72
2023/04/05 01:49:42;;;;;;;7.90;3.80;;;;;;;;;;4988557;28;20147;-64
2023/04/05 01:52:07;;;;;;;7.93;3.42;;;;;;;;;;4988911;28;20038;-67
2023/04/05 01:54:33;;;;;;;10.57;3.70;;;;;;;;;;4989063;28;20390;-66
2023/04/05 01:56:58;;;;;;;10.50;4.03;;;;;;;;;;4988694;28;20457;-63
2023/04/05 01:59:24;;;;;;;9.63;4.10;;;;;;;;;;4989080;28;20072;-68
2023/04/05 02:01:51;;;;;;;7.80;3.55;;;;;;;;;;5006838;28;20440;-69
2023/04/05 02:04:17;;;;;;;6.57;3.28;;;;;;;;;;5008366;28;20473;-63
2023/04/05 02:06:42;;;;;;;6.85;3.58;;;;;;;;;;5008442;28;20064;-64
2023/04/05 02:09:08;;;;;;;6.60;3.38;;;;;;;;;;5047821;28;20043;-62
2023/04/05 02:11:33;;;;;;;9.13;3.30;;;;;;;;;;5090680;28;20085;-63
2023/04/05 02:13:58;;;;;;;5.40;2.70;;;;;;;;;;5090832;28;20107;-64
2023/04/05 02:16:25;;;;;;;6.78;3.00;;;;;;;;;;5090740;28;20023;-63
2023/04/05 02:18:56;;;;;;;10.52;3.10;;;;;;;;;;5090656;28;20025;-63
2023/04/05 02:21:21;;;;;;;;;;;;;;;;;;5091109;28;20031;-63
2023/04/05 02:23:47;;;;;;;7.43;2.78;;;;;;;;;;5090359;28;19912;-64
2023/04/05 02:26:12;;;;;;;6.18;3.10;;;;;;;;;;5090682;28;20028;-74
2023/04/05 02:28:38;;;;;;;8.52;3.42;;;;;;;;;;5090740;28;20355;-73
2023/04/05 02:31:09;;;;;;;8.77;3.80;;;;;;;;;;5090643;28;20032;-72
2023/04/05 02:33:35;;;;;;;9.95;4.07;;;;;;;;;;5090624;28;20471;-75
2023/04/05 02:36:04;;;;;;;10.63;3.63;;;;;;;;;;5090716;28;20030;-75
2023/04/05 02:38:30;;;;;;;12.00;4.45;;;;;;;;;;5090446;28;20028;-75
2023/04/05 02:40:55;;;;;;;11.05;4.25;;;;;;;;;;5090625;28;20020;-71
2023/04/05 02:43:21;;;;;;;16.30;4.57;;;;;;;;;;5090411;28;20106;-75
2023/04/05 02:45:46;;;;;;;10.70;4.60;;;;;;;;;;5090387;28;20355;-67
2023/04/05 02:48:11;;;;;;;16.73;4.90;;;;;;;;;;5090251;28;20407;-74
2023/04/05 02:50:37;;;;;;;9.40;3.88;;;;;;;;;;5090437;28;20028;-73
2023/04/05 02:53:03;;;;;;;13.95;4.47;;;;;;;;;;5090980;28;20340;-75
2023/04/05 02:55:29;;;;;;;10.05;4.55;;;;;;;;;;5101031;28;20063;-72
2023/04/05 02:58:01;;;;;;;23.63;9.73;;;;;;;;;;5110266;28;20539;-62
2023/04/05 03:00:27;;;;;;;13.63;5.43;;;;;;;;;;5110992;28;20036;-64
2023/04/05 03:02:53;;;;;;;14.73;6.25;;;;;;;;;;5114346;28;20030;-62
2023/04/05 03:05:21;;;;;;;19.40;7.15;;;;;;;;;;5114929;27;20055;-66
2023/04/05 03:07:49;;;;;;;17.45;7.72;;;;;;;;;;5114710;28;20084;-66
2023/04/05 03:10:17;;;;;;;20.25;7.88;;;;;;;;;;5115098;28;20031;-67
2023/04/05 03:12:44;;;;;;;23.60;7.60;;;;;;;;;;5114624;28;20435;-66
2023/04/05 03:15:10;;;;;;;14.07;5.43;;;;;;;;;;5114813;28;20390;-69
2023/04/05 03:17:36;;;;;;;6.40;3.42;;;;;;;;;;5114447;27;20247;-70
2023/04/05 03:20:05;;;;;;;8.27;3.00;;;;;;;;;;5114342;28;20094;-67
2023/04/05 03:22:30;;;;;;;8.98;3.60;;;;;;;;;;5114094;28;20022;-71
2023/04/05 03:24:56;;;;;;;7.82;3.45;;;;;;;;;;5114239;28;20398;-67
2023/04/05 03:27:21;;;;;;;8.02;3.53;;;;;;;;;;5114191;28;20383;-66
2023/04/05 03:29:47;;;;;;;9.65;3.45;;;;;;;;;;5114461;27;20031;-73
2023/04/05 03:32:14;;;;;;;12.55;3.40;;;;;;;;;;5114649;28;20123;-69
2023/04/05 03:34:39;;;;;;;10.85;4.22;;;;;;;;;;5114567;28;20028;-62
2023/04/05 03:37:04;;;;;;;19.15;4.90;;;;;;;;;;5114257;28;20351;-69
2023/04/05 03:39:30;;;;;;;23.85;4.78;;;;;;;;;;5114322;28;20047;-62
2023/04/05 03:41:56;;;;;;;42.83;15.45;;;;;;;;;;5114468;28;20024;-63
2023/04/05 03:44:21;;;;;;;51.33;19.35;;;;;;;;;;5114352;28;20023;-62
2023/04/05 03:46:46;;;;;;;48.20;14.48;;;;;;;;;;5114344;28;20155;-63
2023/04/05 03:49:12;;;;;;;17.75;6.97;;;;;;;;;;5114252;28;20031;-74
2023/04/05 03:51:38;;;;;;;14.50;5.68;;;;;;;;;;5114271;28;20023;-65
2023/04/05 03:54:03;;;;;;;14.98;5.88;;;;;;;;;;5114277;28;20045;-69
2023/04/05 03:56:29;;;;;;;12.18;4.90;;;;;;;;;;5114241;28;20019;-73
2023/04/05 03:58:54;;;;;;;16.33;5.65;;;;;;;;;;5113798;28;20484;-64
2023/04/05 04:01:20;;;;;;;11.30;4.90;;;;;;;;;;5114138;28;20019;-64
2023/04/05 04:03:45;;;;;;;12.68;5.90;;;;;;;;;;5113851;28;20474;-65
2023/04/05 04:06:11;;;;;;;10.85;5.18;;;;;;;;;;5113888;28;20114;-65
2023/04/05 04:08:36;;;;;;;12.52;5.47;;;;;;;;;;5113565;28;20027;-63
2023/04/05 04:11:02;;;;;;;12.70;5.15;;;;;;;;;;5113734;28;20020;-65
2023/04/05 04:13:28;;;;;;;14.98;5.72;;;;;;;;;;5112716;28;20034;-71
2023/04/05 04:15:53;;;;;;;13.30;6.25;;;;;;;;;;5113744;28;20165;-66
2023/04/05 04:18:19;;;;;;;13.68;5.78;;;;;;;;;;5113717;28;20028;-64
2023/04/05 04:20:44;;;;;;;11.02;5.38;;;;;;;;;;5113223;28;20055;-65
2023/04/05 04:23:10;;;;;;;10.50;4.68;;;;;;;;;;5113648;28;20023;-66
2023/04/05 04:25:36;;;;;;;11.48;5.03;;;;;;;;;;5113704;27;20019;-72
2023/04/05 04:28:03;;;;;;;11.38;4.00;;;;;;;;;;5113047;28;20035;-67
2023/04/05 04:30:28;;;;;;;10.15;4.80;;;;;;;;;;5113011;28;20595;-67
2023/04/05 04:32:54;;;;;;;11.93;5.10;;;;;;;;;;5111587;28;20027;-63
2023/04/05 04:35:26;;;;;;;10.07;4.28;;;;;;;;;;5112695;28;20023;-66
2023/04/05 04:38:02;;;;;;;10.13;4.45;;;;;;;;;;5112792;28;20098;-63
2023/04/05 04:40:38;;;;;;;16.52;4.88;;;;;;;;;;5112739;28;20038;-66
2023/04/05 04:43:17;;;;;;;16.17;6.30;;;;;;;;;;5113218;28;20062;-66
2023/04/05 04:45:47;;;;;;;19.42;6.32;;;;;;;;;;5113368;28;20085;-69
2023/04/05 04:48:15;;;;;;;20.35;5.95;;;;;;;;;;5113009;28;20034;-73
2023/04/05 04:50:44;;;;;;;18.75;5.30;;;;;;;;;;5112736;28;20080;-73
2023/04/05 04:53:10;;;;;;;22.08;5.28;;;;;;;;;;5112876;28;20323;-72
2023/04/05 04:55:35;;;;;;;23.85;5.50;;;;;;;;;;5113130;28;20102;-74
2023/04/05 04:58:08;;;;;;;19.67;5.70;;;;;;;;;;5112498;28;20526;-74
2023/04/05 05:00:34;;;;;;;22.35;5.22;;;;;;;;;;5112674;28;20031;-74
2023/04/05 05:03:00;;;;;;;17.40;5.03;;;;;;;;;;5112732;28;20020;-71
2023/04/05 05:05:26;;;;;;;15.90;3.55;;;;;;;;;;5112378;28;20483;-74
2023/04/05 05:07:52;;;;;;;11.30;3.30;;;;;;;;;;5112441;28;20057;-72
2023/04/05 05:10:18;;;;;;;12.52;4.13;;;;;;;;;;5112731;28;20028;-73
2023/04/05 05:12:44;;;;;;;9.77;3.15;;;;;;;;;;5112740;27;20474;-74
2023/04/05 05:15:11;;;;;;;7.80;3.63;;;;;;;;;;5112613;27;20019;-74
2023/04/05 05:17:38;;;;;;;10.65;3.08;;;;;;;;;;5112222;28;20542;-72
2023/04/05 05:20:09;;;;;;;13.80;3.38;;;;;;;;;;5112419;28;20099;-67
2023/04/05 05:22:35;;;;;;;12.32;2.88;;;;;;;;;;5112468;28;20043;-64
2023/04/05 05:25:00;;;;;;;13.35;2.97;;;;;;;;;;5112083;28;20517;-70
2023/04/05 05:27:27;;;;;;;9.88;2.67;;;;;;;;;;5111908;28;20491;-73
2023/04/05 05:29:52;;;;;;;9.48;3.25;;;;;;;;;;5112139;28;20424;-71
2023/04/05 05:32:18;;;;;;;6.38;3.70;;;;;;;;;;5111924;28;20028;-68
2023/04/05 05:34:43;;;;;;;6.72;3.17;;;;;;;;;;5112186;28;20042;-69
2023/04/05 05:37:11;;;;;;;10.50;3.70;;;;;;;;;;5112002;27;20080;-67
2023/04/05 05:39:37;;;;;;;13.02;3.58;;;;;;;;;;5112066;28;20019;-70
2023/04/05 05:42:03;;;;;;;8.23;3.30;;;;;;;;;;5112097;28;20042;-73
2023/04/05 05:44:31;;;;;;;12.50;2.90;;;;;;;;;;5112061;28;20032;-67
2023/04/05 05:46:57;;;;;;;5.97;2.53;;;;;;;;;;5111526;28;20030;-73
2023/04/05 05:49:23;;;;;;;4.25;2.00;;;;;;;;;;5111976;28;20055;-70
2023/04/05 05:51:49;;;;;;;10.20;3.50;;;;;;;;;;5112020;28;20117;-69
2023/04/05 05:54:15;;;;;;;8.00;3.65;;;;;;;;;;5111846;28;20102;-68
2023/04/05 05:56:41;;;;;;;12.43;4.20;;;;;;;;;;5111303;28;20119;-69
2023/04/05 05:59:06;;;;;;;9.68;4.78;;;;;;;;;;5111477;28;20020;-62
2023/04/05 06:01:33;;;;;;;8.18;4.60;;;;;;;;;;5111540;28;20438;-63
2023/04/05 06:03:59;;;;;;;11.30;5.55;;;;;;;;;;5109843;28;20440;-62
2023/04/05 06:06:25;;;;;;;7.65;4.25;;;;;;;;;;5111175;28;20432;-62
2023/04/05 06:08:51;;;;;;;9.82;4.88;;;;;;;;;;5111561;28;20026;-69
2023/04/05 06:11:20;;;;;;;18.30;4.85;;;;;;;;;;5111386;28;20023;-64
2023/04/05 06:13:46;;;;;;;9.82;4.93;;;;;;;;;;5111906;28;20023;-63
2023/04/05 06:16:11;;;;;;;7.50;3.60;;;;;;;;;;5111492;28;20024;-65
2023/04/05 06:18:37;;;;;;;12.68;4.75;;;;;;;;;;5111256;28;20027;-64
2023/04/05 06:21:02;;;;;;;13.30;4.30;;;;;;;;;;5111522;28;20368;-63
2023/04/05 06:23:28;;;;;;;8.82;3.65;;;;;;;;;;5111753;28;20047;-68
2023/04/05 06:25:55;;;;;;;6.18;3.55;;;;;;;;;;5111804;28;20041;-63
2023/04/05 06:28:20;;;;;;;7.70;3.20;;;;;;;;;;5111264;28;20039;-62
2023/04/05 06:30:46;;;;;;;11.63;3.88;;;;;;;;;;5110862;28;20031;-61
2023/04/05 06:33:11;;;;;;;7.05;3.42;;;;;;;;;;5111325;28;20027;-72
2023/04/05 06:35:37;;;;;;;8.15;3.55;;;;;;;;;;5111426;28;20024;-66
2023/04/05 06:38:02;;;;;;;9.00;3.38;;;;;;;;;;5115039;28;20118;-63
2023/04/05 06:40:28;;;;;;;10.55;3.10;;;;;;;;;;5115686;28;20035;-66
2023/04/05 06:42:54;;;;;;;11.48;3.15;;;;;;;;;;5115471;28;20020;-65
2023/04/05 06:45:19;;;;;;;6.68;3.05;;;;;;;;;;5115191;28;20492;-64
2023/04/05 06:47:45;;;;;;;6.90;3.05;;;;;;;;;;5115120;28;20127;-64
2023/04/05 06:50:10;;;;;;;9.07;4.00;;;;;;;;;;5115181;28;20030;-63
2023/04/05 06:52:37;;;;;;;9.73;3.25;;;;;;;;;;5114790;28;20042;-67
2023/04/05 06:55:03;;;;;;;7.32;2.97;;;;;;;;;;5114988;28;20031;-64
2023/04/05 06:57:29;;;;;;;5.88;2.60;;;;;;;;;;5114976;28;20027;-69
2023/04/05 06:59:55;;;;;;;15.18;3.35;;;;;;;;;;5114915;28;20382;-63
2023/04/05 07:02:21;;;;;;;8.77;3.30;;;;;;;;;;5115091;28;20027;-67
2023/04/05 07:04:47;;;;;;;8.98;2.85;;;;;;;;;;5114976;28;20073;-63
2023/04/05 07:07:12;;;;;;;5.13;2.80;;;;;;;;;;5114912;27;20358;-71
2023/04/05 07:09:38;;;;;;;14.30;3.30;;;;;;;;;;5114995;28;20024;-67
2023/04/05 07:12:05;;;;;;;7.80;3.17;;;;;;;;;;5115198;28;20024;-73
2023/04/05 07:14:32;;;;;;;7.70;2.70;;;;;;;;;;5114760;28;20023;-71
2023/04/05 07:16:58;;;;;;;5.93;2.58;;;;;;;;;;5115083;28;20339;-74
2023/04/05 07:19:24;;;;;;;7.72;2.75;;;;;;;;;;5115152;28;20027;-73
2023/04/05 07:21:49;;;;;;;3.90;2.10;;;;;;;;;;5114909;28;20104;-73
2023/04/05 07:24:15;;;;;;;5.82;2.28;;;;;;;;;;5113626;28;20023;-75
2023/04/05 07:26:40;;;;;;;5.22;2.20;;;;;;;;;;5114649;28;20023;-73
2023/04/05 07:29:07;;;;;;;4.30;1.80;;;;;;;;;;5113406;28;20056;-72
2023/04/05 07:31:33;;;;;;;10.27;2.50;;;;;;;;;;5114255;28;20494;-69
2023/04/05 07:33:59;;;;;;;7.70;2.50;;;;;;;;;;5114348;28;20038;-70
2023/04/05 07:36:26;;;;;;;7.65;2.47;;;;;;;;;;5114375;28;20106;-63
2023/04/05 07:38:54;;;;;;;9.93;2.65;;;;;;;;;;5114091;28;20498;-67
2023/04/05 07:41:22;;;;;;;6.63;2.60;;;;;;;;;;5114568;28;20031;-74
2023/04/05 07:43:48;;;;;;;11.57;3.00;;;;;;;;;;5114629;28;20028;-75
2023/04/05 07:46:13;;;;;;;15.25;4.43;;;;;;;;;;5114438;28;20517;-70
2023/04/05 07:48:38;;;;;;;6.93;3.22;;;;;;;;;;5114599;27;20027;-74
2023/04/05 07:51:08;;;;;;;4.22;1.98;;;;;;;;;;5114608;28;20027;-73
2023/04/05 07:53:35;;;;;;;6.93;2.80;;;;;;;;;;5114675;28;20587;-75
2023/04/05 07:56:05;;;;;;;9.05;2.28;;;;;;;;;;5114484;28;20031;-72
2023/04/05 07:58:31;;;;;;;4.93;2.80;;;;;;;;;;5114132;28;20024;-69
2023/04/05 08:01:03;;;;;;;5.38;2.55;;;;;;;;;;5114513;28;20031;-63
2023/04/05 08:03:30;;;;;;;5.15;2.25;;;;;;;;;;5114308;28;20024;-74
2023/04/05 08:05:56;;;;;;;6.75;2.65;;;;;;;;;;5113900;28;20043;-74
2023/04/05 08:08:23;;;;;;;4.88;2.08;;;;;;;;;;5114092;28;20030;-70
2023/04/05 08:10:49;;;;;;;5.55;2.33;;;;;;;;;;5113962;28;20020;-68
2023/04/05 08:13:15;;;;;;;7.80;2.58;;;;;;;;;;5113928;28;20473;-72
2023/04/05 08:15:40;;;;;;;9.50;2.33;;;;;;;;;;5114154;28;20031;-77
2023/04/05 08:18:06;;;;;;;3.47;1.98;;;;;;;;;;5114191;28;20042;-70
2023/04/05 08:20:31;;;;;;;5.90;1.80;;;;;;;;;;5114059;28;20031;-69
2023/04/05 08:22:57;;;;;;;6.55;2.55;;;;;;;;;;5109514;28;20031;-68
2023/04/05 08:25:22;;;;;;;5.82;2.30;;;;;;;;;;5114538;28;20058;-76
2023/04/05 08:27:47;;;;;;;6.95;2.30;;;;;;;;;;5114370;27;20061;-77
2023/04/05 08:30:13;;;;;;;6.88;2.25;;;;;;;;;;5114567;28;20072;-76
2023/04/05 08:32:38;;;;;;;4.57;1.77;;;;;;;;;;5114985;28;20023;-69
2023/04/05 08:35:04;;;;;;;5.78;2.28;;;;;;;;;;5114334;28;20027;-76
2023/04/05 08:37:34;;;;;;;6.25;2.20;;;;;;;;;;5114202;28;20031;-75
2023/04/05 08:39:59;;;;;;;7.82;2.45;;;;;;;;;;5114515;28;20020;-66
2023/04/05 08:42:31;;;;;;;7.28;2.33;;;;;;;;;;5114440;28;20431;-77
2023/04/05 08:44:58;;;;;;;4.10;1.90;;;;;;;;;;5114525;28;20023;-75
2023/04/05 08:47:24;;;;;;;5.90;2.03;;;;;;;;;;5112662;28;20027;-67
2023/04/05 08:49:50;;;;;;;5.53;1.98;;;;;;;;;;5111042;28;20015;-75
2023/04/05 08:52:15;;;;;;;4.07;2.20;;;;;;;;;;5113884;28;20012;-77
2023/04/05 08:54:41;;;;;;;7.40;2.20;;;;;;;;;;5113801;28;20040;-76
2023/04/05 08:57:07;;;;;;;3.45;2.10;;;;;;;;;;5113410;28;20035;-75
2023/04/05 08:59:38;;;;;;;5.03;2.10;;;;;;;;;;5113725;28;20103;-70
2023/04/05 09:02:05;;;;;;;;;;;;;;;;;;5114611;28;20087;-69
2023/04/05 09:04:38;;;;;;;5.75;2.08;;;;;;;;;;5114029;28;19916;-69
2023/04/05 09:07:06;;;;;;;4.50;2.22;;;;;;;;;;5113997;28;20106;-78
2023/04/05 09:09:35;;;;;;;4.05;2.20;;;;;;;;;;5114224;28;20020;-77
2023/04/05 09:12:03;;;;;;;5.53;2.30;;;;;;;;;;5113993;28;20132;-67
2023/04/05 09:14:32;;;;;;;5.35;2.10;;;;;;;;;;5113925;28;20436;-77
2023/04/05 09:17:00;;;;;;;5.03;2.50;;;;;;;;;;5113713;28;20031;-77
2023/04/05 09:19:25;;;;;;;5.72;1.73;;;;;;;;;;5113889;28;20025;-66
2023/04/05 09:22:00;;;;;;;6.80;2.55;;;;;;;;;;5113487;28;20102;-70
2023/04/05 09:24:40;;;;;;;5.68;2.40;;;;;;;;;;5113385;28;20424;-69
2023/04/05 09:27:10;;;;;;;4.72;2.22;;;;;;;;;;5113499;28;20031;-68
2023/04/05 09:29:36;;;;;;;4.57;1.98;;;;;;;;;;5113460;28;20038;-77
2023/04/05 09:32:03;;;;;;;8.35;2.60;;;;;;;;;;5113786;28;20023;-75
2023/04/05 09:34:33;;;;;;;6.13;2.00;;;;;;;;;;5113604;28;20055;-76
2023/04/05 09:37:00;;;;;;;4.47;2.17;;;;;;;;;;5113690;28;20062;-77
2023/04/05 09:39:30;;;;;;;7.68;2.10;;;;;;;;;;5113248;28;20468;-76
2023/04/05 09:42:04;;;;;;;;;;;;;;;;;;5113826;28;20019;-77
2023/04/05 09:44:56;;;;;;;4.53;2.00;;;;;;;;;;5113505;28;19919;-72
2023/04/05 09:47:29;;;;;;;4.10;1.85;;;;;;;;;;5112635;28;20035;-70
2023/04/05 09:49:56;;;;;;;5.63;2.40;;;;;;;;;;5113226;28;20036;-75
2023/04/05 09:52:27;;;;;;;5.60;2.33;;;;;;;;;;5112987;28;20020;-70
2023/04/05 09:54:55;;;;;;;4.47;2.10;;;;;;;;;;5112947;28;20107;-75
2023/04/05 09:57:26;;;;;;;4.05;2.28;;;;;;;;;;5112399;28;20522;-74
2023/04/05 09:59:52;;;;;;;5.88;1.92;;;;;;;;;;5113114;28;20080;-74
2023/04/05 10:02:18;;;;;;;5.07;2.28;;;;;;;;;;5113126;28;20351;-73
2023/04/05 10:04:45;;;;;;;6.15;2.30;;;;;;;;;;5112806;28;20047;-73
2023/04/05 10:07:12;;;;;;;4.15;2.03;;;;;;;;;;5112566;28;20030;-75
2023/04/05 10:09:43;;;;;;;5.88;2.28;;;;;;;;;;5111677;28;20020;-74
2023/04/05 10:12:11;;;;;;;3.80;2.05;;;;;;;;;;5110382;28;20016;-72
2023/04/05 10:14:37;;;;;;;3.92;2.08;;;;;;;;;;5111960;28;20020;-75
2023/04/05 10:17:20;;;;;;;5.03;2.00;;;;;;;;;;5112117;28;20023;-71
2023/04/05 10:20:14;;;;;;;5.68;2.10;;;;;;;;;;5112112;28;20497;-68
2023/04/05 10:22:51;;;;;;;6.63;2.40;;;;;;;;;;5111946;28;20400;-64
2023/04/05 10:25:50;;;;;;;3.55;2.28;;;;;;;;;;5112634;28;20034;-67
2023/04/05 10:28:32;;;;;;;5.82;2.20;;;;;;;;;;5112625;28;20024;-63
2023/04/05 10:31:27;;;;;;;7.10;2.20;;;;;;;;;;5112732;28;20096;-68
2023/04/05 10:34:03;;;;;;;5.85;2.50;;;;;;;;;;5112083;28;20074;-68
2023/04/05 10:36:50;;;;;;;7.20;2.55;;;;;;;;;;5113089;28;20450;-67
2023/04/05 10:39:41;;;;;;;5.78;2.45;;;;;;;;;;5112717;28;20423;-73
2023/04/05 10:42:15;;;;;;;5.07;2.22;;;;;;;;;;5111410;28;20027;-70
2023/04/05 10:44:44;;;;;;;3.42;1.40;;;;;;;;;;5109876;28;20024;-72
2023/04/05 10:47:13;;;;;;;5.30;1.95;;;;;;;;;;5112312;28;20474;-69
2023/04/05 10:49:42;;;;;;;4.10;1.83;;;;;;;;;;5112287;28;20503;-74
2023/04/05 10:52:08;;;;;;;4.65;1.98;;;;;;;;;;5112380;28;20030;-72
2023/04/05 10:54:35;;;;;;;5.20;2.00;;;;;;;;;;5112392;28;20063;-67
2023/04/05 10:57:06;;;;;;;5.10;2.70;;;;;;;;;;5112207;28;20138;-75
2023/04/05 10:59:32;;;;;;;6.75;2.22;;;;;;;;;;5111461;28;20024;-63
2023/04/05 11:01:58;;;;;;;2.03;1.20;;;;;;;;;;5111439;28;20027;-70
2023/04/05 11:04:24;;;;;;;10.35;2.00;;;;;;;;;;5111737;28;20494;-63
2023/04/05 11:07:15;;;;;;;4.95;2.20;;;;;;;;;;5111143;28;20054;-69
2023/04/05 11:10:03;;;;;;;3.67;2.00;;;;;;;;;;5109347;28;20034;-67
2023/04/05 11:12:47;;;;;;;4.78;2.05;;;;;;;;;;5110597;28;20092;-62
2023/04/05 11:15:24;;;;;;;5.72;2.10;;;;;;;;;;5111727;28;20035;-77
2023/04/05 11:18:11;;;;;;;8.57;3.13;;;;;;;;;;5111866;28;20092;-72
2023/04/05 11:20:50;;;;;;;3.58;2.00;;;;;;;;;;5107833;28;20358;-73
2023/04/05 11:23:20;;;;;;;7.35;2.55;;;;;;;;;;5114341;28;20379;-72
2023/04/05 11:25:54;;;;;;;8.98;2.80;;;;;;;;;;5114495;28;20019;-75
2023/04/05 11:28:36;;;;;;;3.85;2.13;;;;;;;;;;5108720;28;20072;-67
2023/04/05 11:31:15;;;;;;;4.47;2.25;;;;;;;;;;5115035;28;20055;-74
2023/04/05 11:33:43;;;;;;;4.57;2.10;;;;;;;;;;5115405;28;20034;-75
2023/04/05 11:36:09;;;;;;;4.78;2.00;;;;;;;;;;5115488;28;20063;-69
2023/04/05 11:38:35;;;;;;;7.47;2.13;;;;;;;;;;5115469;27;20073;-72
2023/04/05 11:41:16;;;;;;;3.40;2.15;;;;;;;;;;5114687;28;20442;-73
2023/04/05 11:43:42;;;;;;;5.30;2.22;;;;;;;;;;5115562;28;20031;-73
2023/04/05 11:46:08;;;;;;;5.43;2.58;;;;;;;;;;5115227;28;20027;-76
2023/04/05 11:48:33;;;;;;;7.15;2.80;;;;;;;;;;5115204;28;20497;-72
2023/04/05 11:50:59;;;;;;;4.88;2.45;;;;;;;;;;5115196;28;20157;-80
2023/04/05 11:53:24;;;;;;;8.05;2.70;;;;;;;;;;5115536;28;20028;-79
2023/04/05 11:55:51;;;;;;;6.97;3.17;;;;;;;;;;5115139;28;20023;-71
2023/04/05 11:58:20;;;;;;;5.85;2.92;;;;;;;;;;5104093;28;20026;-75
2023/04/05 12:00:46;;;;;;;4.90;2.95;;;;;;;;;;5094937;28;20471;-78
2023/04/05 12:03:15;;;;;;;5.70;3.58;;;;;;;;;;5094684;28;20141;-79
2023/04/05 12:05:49;;;;;;;4.15;2.53;;;;;;;;;;5094423;28;20044;-76
2023/04/05 12:08:15;;;;;;;5.13;2.85;;;;;;;;;;5094811;28;20040;-78
2023/04/05 12:10:41;;;;;;;5.75;2.85;;;;;;;;;;5093405;28;20466;-78
2023/04/05 12:13:06;;;;;;;5.90;2.90;;;;;;;;;;5094802;28;20103;-72
2023/04/05 12:15:37;;;;;;;7.32;3.58;;;;;;;;;;5094708;28;20032;-81
2023/04/05 12:18:02;;;;;;;5.85;2.70;;;;;;;;;;5093322;28;20497;-78
2023/04/05 12:20:28;;;;;;;5.53;2.65;;;;;;;;;;5093074;28;20024;-77
2023/04/05 12:22:55;;;;;;;6.47;2.45;;;;;;;;;;5108857;28;20016;-69
2023/04/05 12:25:22;;;;;;;6.18;3.00;;;;;;;;;;5114879;28;20168;-78
2023/04/05 12:27:47;;;;;;;6.07;2.20;;;;;;;;;;5114070;27;20027;-70
2023/04/05 12:30:18;;;;;;;4.05;2.17;;;;;;;;;;5114921;27;20061;-75
2023/04/05 12:32:50;;;;;;;7.00;2.13;;;;;;;;;;5114397;28;20054;-79
2023/04/05 12:35:17;;;;;;;7.28;4.13;;;;;;;;;;5113760;28;20077;-75
2023/04/05 12:37:42;;;;;;;7.72;3.97;;;;;;;;;;5114606;28;20111;-77
2023/04/05 12:40:09;;;;;;;6.72;3.78;;;;;;;;;;5114634;28;20099;-73
2023/04/05 12:42:36;;;;;;;5.72;2.55;;;;;;;;;;5114216;27;20028;-66
2023/04/05 12:45:04;;;;;;;5.20;2.60;;;;;;;;;;5114477;28;20125;-76
2023/04/05 12:47:32;;;;;;;7.82;2.95;;;;;;;;;;5114297;28;20023;-78
2023/04/05 12:50:09;;;;;;;6.03;2.40;;;;;;;;;;5114499;28;20063;-66
2023/04/05 12:52:34;;;;;;;5.25;2.20;;;;;;;;;;5114287;28;20453;-65
2023/04/05 12:55:00;;;;;;;4.05;1.90;;;;;;;;;;5114128;28;20108;-63
2023/04/05 12:57:30;;;;;;;3.55;1.60;;;;;;;;;;5111185;28;20110;-67
2023/04/05 12:59:56;;;;;;;16.58;3.75;;;;;;;;;;5113305;28;20483;-68
2023/04/05 13:02:21;;;;;;;3.03;1.70;;;;;;;;;;5113402;27;20036;-65
2023/04/05 13:04:47;;;;;;;5.80;3.28;;;;;;;;;;5113486;28;20047;-65
2023/04/05 13:07:12;;;;;;;20.70;8.15;;;;;;;;;;5113641;28;20015;-63
2023/04/05 13:09:37;;;;;;;5.95;2.38;;;;;;;;;;5114073;28;20501;-68
2023/04/05 13:12:03;;;;;;;1.70;1.00;;;;;;;;;;5114188;28;20043;-64
2023/04/05 13:14:29;;;;;;;4.45;1.70;;;;;;;;;;5113871;28;20035;-64
2023/04/05 13:16:54;;;;;;;6.10;1.98;;;;;;;;;;5113709;28;20070;-62
2023/04/05 13:19:20;;;;;;;2.83;1.60;;;;;;;;;;5113904;27;20034;-62
2023/04/05 13:21:45;;;;;;;4.63;1.60;;;;;;;;;;5113813;28;20026;-66
2023/04/05 13:24:11;;;;;;;2.10;1.35;;;;;;;;;;5114089;28;20363;-63
2023/04/05 13:26:36;;;;;;;4.63;1.70;;;;;;;;;;5113560;28;20053;-68
2023/04/05 13:29:02;;;;;;;4.07;1.35;;;;;;;;;;5113932;28;20110;-76
2023/04/05 13:31:28;;;;;;;3.70;1.60;;;;;;;;;;5113799;28;20111;-64
2023/04/05 13:33:53;;;;;;;7.90;2.38;;;;;;;;;;5113936;28;20466;-62
2023/04/05 13:36:19;;;;;;;3.70;1.60;;;;;;;;;;5113761;28;20024;-64
2023/04/05 13:38:44;;;;;;;5.05;1.75;;;;;;;;;;5113608;28;20760;-65
2023/04/05 13:41:10;;;;;;;3.13;1.45;;;;;;;;;;5113769;28;20028;-72
2023/04/05 13:43:35;;;;;;;3.50;1.27;;;;;;;;;;5113598;28;20023;-64
2023/04/05 13:46:01;;;;;;;1.90;1.10;;;;;;;;;;5113227;28;20419;-67
2023/04/05 13:48:26;;;;;;;6.07;1.30;;;;;;;;;;5111978;28;20389;-63
2023/04/05 13:50:52;;;;;;;4.85;1.00;;;;;;;;;;5113491;28;20490;-68
2023/04/05 13:53:17;;;;;;;2.75;1.30;;;;;;;;;;5113297;28;20075;-64
2023/04/05 13:55:42;;;;;;;2.72;1.00;;;;;;;;;;5113521;28;20131;-63
2023/04/05 13:58:08;;;;;;;2.53;1.30;;;;;;;;;;5113301;28;20136;-63
2023/04/05 14:00:33;;;;;;;3.10;1.00;;;;;;;;;;5112546;28;20024;-63
2023/04/05 14:02:58;;;;;;;4.80;1.92;;;;;;;;;;5112042;28;20031;-66
2023/04/05 14:05:24;;;;;;;2.42;1.30;;;;;;;;;;5111929;28;20067;-69
2023/04/05 14:07:49;;;;;;;8.20;2.78;;;;;;;;;;5113115;28;20034;-64
2023/04/05 14:10:16;;;;;;;2.72;1.35;;;;;;;;;;5113161;28;20102;-66
2023/04/05 14:12:41;;;;;;;2.83;1.27;;;;;;;;;;5113030;27;20023;-63
2023/04/05 14:15:07;;;;;;;4.18;1.40;;;;;;;;;;5113082;28;20027;-62
2023/04/05 14:17:33;;;;;;;6.70;2.63;;;;;;;;;;5112694;28;20028;-64
2023/04/05 14:19:58;;;;;;;4.22;1.20;;;;;;;;;;5112878;28;20058;-65
2023/04/05 14:22:24;;;;;;;2.25;1.20;;;;;;;;;;5112980;28;20020;-63
2023/04/05 14:24:49;;;;;;;4.93;1.40;;;;;;;;;;5113052;28;20023;-67
2023/04/05 14:27:15;;;;;;;2.97;1.10;;;;;;;;;;5112857;28;20034;-70
2023/04/05 14:29:40;;;;;;;4.13;1.25;;;;;;;;;;5112806;28;20020;-77
2023/04/05 14:32:05;;;;;;;9.23;1.67;;;;;;;;;;5112957;28;20027;-75
2023/04/05 14:34:32;;;;;;;4.53;1.40;;;;;;;;;;5112536;28;20116;-67
2023/04/05 14:36:59;;;;;;;2.80;1.63;;;;;;;;;;5111598;28;20028;-65
2023/04/05 14:39:25;;;;;;;9.32;1.80;;;;;;;;;;5111643;28;20015;-75
2023/04/05 14:41:51;;;;;;;6.65;1.70;;;;;;;;;;5112749;28;20355;-64
2023/04/05 14:44:17;;;;;;;3.35;1.05;;;;;;;;;;5112628;28;20031;-76
2023/04/05 14:46:42;;;;;;;5.18;2.00;;;;;;;;;;5114162;28;20057;-67